Time;durP1;ratioP1;P1;durP2;ratioP2;P2;SDS_P1;SDS_P2;PMS_P1;PMS_P2;Temp;Humidity;BMP_temperature;BMP_pressure;BME280_temperature;BME280_humidity;BME280_pressure;Samples;Min_cycle;Max_cycle;Signal;HPM_P1;HPM_P2
2022/02/07 00:00:23;;;;;;;23.65;5.55;;;;;;;13.29;41.95;101889.69;5013458;28;20439;-72
2022/02/07 00:05:27;;;;;;;19.63;5.70;;;;;;;13.15;42.06;101896.25;5013277;28;20068;-72
2022/02/07 00:07:54;;;;;;;19.38;6.38;;;;;;;13.16;42.27;101901.47;5012023;28;20029;-72
2022/02/07 00:10:20;;;;;;;17.60;6.00;;;;;;;13.18;42.02;101907.44;5013345;28;20105;-72
2022/02/07 00:12:46;;;;;;;12.38;4.75;;;;;;;13.24;42.20;101910.97;5013244;28;20132;-72
2022/02/07 00:15:16;;;;;;;16.08;5.38;;;;;;;13.31;41.85;101912.19;5011936;28;20535;-71
2022/02/07 00:17:42;;;;;;;17.17;6.40;;;;;;;13.19;42.18;101914.56;5013174;28;20076;-72
2022/02/07 00:20:16;;;;;;;20.52;6.07;;;;;;;13.29;41.85;101919.88;5013316;28;20105;-72
2022/02/07 00:22:42;;;;;;;21.60;5.32;;;;;;;13.21;42.08;101926.06;5011991;28;20036;-72
2022/02/07 00:25:09;;;;;;;22.33;6.63;;;;;;;13.25;41.88;101932.59;5013355;28;20129;-72
2022/02/07 00:27:35;;;;;;;28.40;7.03;;;;;;;13.20;42.08;101935.44;5012986;28;20456;-72
2022/02/07 00:30:03;;;;;;;21.52;5.53;;;;;;;13.22;41.70;101935.13;5013040;28;20046;-72
2022/02/07 00:32:28;;;;;;;20.33;5.70;;;;;;;13.27;41.77;101943.28;5012901;28;20022;-72
2022/02/07 00:34:54;;;;;;;19.95;5.32;;;;;;;13.07;42.24;101938.91;5013244;28;20480;-72
2022/02/07 00:37:19;;;;;;;15.10;4.28;;;;;;;13.03;42.01;101940.66;5012808;28;20472;-72
2022/02/07 00:39:54;;;;;;;21.45;5.68;;;;;;;13.01;42.23;101948.38;5012693;28;20361;-72
2022/02/07 00:42:25;;;;;;;16.10;4.95;;;;;;;13.07;42.17;101952.63;5012955;28;20033;-72
2022/02/07 00:44:51;;;;;;;20.15;5.70;;;;;;;13.03;42.09;101959.84;5012567;28;20542;-72
2022/02/07 00:47:17;;;;;;;15.15;5.00;;;;;;;13.07;41.96;101963.63;5012483;28;20033;-72
2022/02/07 00:49:43;;;;;;;24.20;4.72;;;;;;;13.02;42.38;101981.00;5011418;28;20037;-72
2022/02/07 00:52:09;;;;;;;15.68;5.43;;;;;;;13.03;42.16;101990.03;5011306;28;20132;-72
2022/02/07 00:54:35;;;;;;;20.95;7.00;;;;;;;13.00;42.15;102001.63;5012451;28;20042;-72
2022/02/07 00:57:01;;;;;;;17.30;4.70;;;;;;;12.99;42.12;102010.94;5012312;28;20025;-72
2022/02/07 00:59:26;;;;;;;19.23;6.07;;;;;;;12.84;42.66;102022.16;5012634;28;20030;-72
2022/02/07 01:01:52;;;;;;;17.48;5.60;;;;;;;12.86;42.43;102025.44;5012345;28;20054;-72
2022/02/07 01:04:18;;;;;;;23.33;5.88;;;;;;;12.98;42.23;102015.63;5012313;28;20496;-80
2022/02/07 01:06:43;;;;;;;14.70;4.38;;;;;;;12.88;42.48;102017.72;5012263;28;20038;-72
2022/02/07 01:09:20;;;;;;;19.08;4.70;;;;;;;12.80;42.66;102026.59;5012258;28;20029;-72
2022/02/07 01:14:39;;;;;;;13.85;4.60;;;;;;;12.85;42.53;102021.88;5012301;28;20057;-72
2022/02/07 01:22:39;;;;;;;17.98;4.80;;;;;;;12.77;42.65;102012.38;5012535;28;20050;-72
2022/02/07 01:54:38;;;;;;;15.80;4.85;;;;;;;12.91;42.01;102031.63;5012145;28;20764;-72
2022/02/07 01:57:07;;;;;;;15.35;4.22;;;;;;;12.93;41.87;102026.69;5010539;28;20396;-72
2022/02/07 01:59:33;;;;;;;21.90;4.72;;;;;;;12.92;41.97;102029.69;5010478;28;20034;-73
2022/02/07 02:01:58;;;;;;;14.35;4.43;;;;;;;12.87;42.21;102027.06;5011607;28;20026;-72
2022/02/07 02:04:24;;;;;;;14.02;4.85;;;;;;;12.96;42.00;102037.06;5011698;28;20040;-72
2022/02/07 02:06:51;;;;;;;12.13;4.70;;;;;;;12.95;42.09;102040.09;5010655;28;20679;-72
2022/02/07 02:09:17;;;;;;;14.10;4.07;;;;;;;12.94;41.80;102038.47;5011654;28;20034;-72
2022/02/07 02:11:43;;;;;;;14.90;4.35;;;;;;;12.87;42.20;102044.31;5011688;28;20042;-72
2022/02/07 02:19:50;;;;;;;17.90;5.35;;;;;;;12.98;41.72;102048.53;5011598;28;20576;-71
2022/02/07 02:22:51;;;;;;;15.18;4.25;;;;;;;13.01;41.68;102058.13;5011181;28;20030;-72
2022/02/07 02:33:49;;;;;;;17.50;4.72;;;;;;;12.92;41.96;102032.44;5015229;28;20033;-72
2022/02/07 02:38:48;;;;;;;13.52;4.35;;;;;;;12.95;41.83;102051.88;5015306;28;20029;-72
2022/02/07 02:46:34;;;;;;;15.00;3.85;;;;;;;12.96;41.68;102064.50;5015519;28;20516;-72
2022/02/07 02:49:02;;;;;;;14.20;4.38;;;;;;;13.03;41.83;102058.63;5014929;28;20053;-72
2022/02/07 02:51:29;;;;;;;15.52;4.75;;;;;;;13.03;41.80;102070.41;5015016;28;20116;-72
2022/02/07 02:53:55;;;;;;;20.05;5.20;;;;;;;13.01;41.85;102072.66;5015174;28;20172;-72
2022/02/07 02:56:21;;;;;;;19.55;5.22;;;;;;;13.02;41.83;102062.50;5014836;28;20109;-72
2022/02/07 02:58:47;;;;;;;16.58;4.28;;;;;;;13.01;41.98;102060.88;5014945;28;20034;-72
2022/02/07 03:01:12;;;;;;;22.30;4.80;;;;;;;13.08;42.02;102065.97;5014844;28;20083;-72
2022/02/07 03:03:38;;;;;;;16.77;4.68;;;;;;;13.14;41.82;102076.56;5014865;28;20037;-73
2022/02/07 03:06:04;;;;;;;16.08;5.20;;;;;;;13.17;41.75;102058.69;5014735;28;20034;-72
2022/02/07 03:08:30;;;;;;;14.60;4.68;;;;;;;13.20;41.73;102050.69;5014828;28;20025;-72
2022/02/07 03:18:34;;;;;;;15.45;4.35;;;;;;;13.25;41.76;102012.19;5014640;28;20508;-72
2022/02/07 03:21:00;;;;;;;16.90;4.88;;;;;;;13.20;41.98;102009.53;5014455;28;20117;-72
2022/02/07 03:23:27;;;;;;;16.48;3.88;;;;;;;13.27;41.72;102004.47;5014769;28;20026;-72
2022/02/07 03:25:53;;;;;;;14.30;4.43;;;;;;;13.29;41.58;102001.44;5015197;28;20526;-79
2022/02/07 03:28:20;;;;;;;18.52;4.57;;;;;;;13.31;41.76;101999.22;5013541;28;20085;-72
2022/02/07 03:30:46;;;;;;;16.38;5.47;;;;;;;13.33;41.57;101995.03;5014477;28;20025;-71
2022/02/07 03:33:11;;;;;;;12.48;3.67;;;;;;;13.37;41.53;102002.66;5014311;28;20482;-72
2022/02/07 03:35:37;;;;;;;19.02;5.35;;;;;;;13.38;41.75;102001.56;5014163;28;20120;-72
2022/02/07 03:38:04;;;;;;;17.27;4.03;;;;;;;13.37;41.88;102013.66;5014204;28;20101;-73
2022/02/07 03:40:30;;;;;;;12.57;3.78;;;;;;;13.37;41.77;102025.44;5012666;28;20040;-87
2022/02/07 03:42:56;;;;;;;22.05;4.90;;;;;;;13.31;41.77;102032.97;5014118;28;20041;-72
2022/02/07 03:45:22;;;;;;;16.25;3.85;;;;;;;13.37;41.84;102049.34;5014179;28;20022;-72
2022/02/07 03:47:47;;;;;;;15.98;3.78;;;;;;;13.37;41.88;102058.38;5014006;28;20026;-82
2022/02/07 03:50:13;;;;;;;13.45;4.10;;;;;;;13.38;41.68;102053.75;5012758;28;20034;-72
2022/02/07 03:52:38;;;;;;;21.80;3.92;;;;;;;13.32;41.80;102044.75;5013926;28;20449;-72
2022/02/07 03:55:05;;;;;;;19.02;4.30;;;;;;;13.26;41.87;102038.53;5013929;28;20026;-72
2022/02/07 03:57:31;;;;;;;16.40;3.42;;;;;;;13.30;41.80;102047.81;5013894;28;20032;-71
2022/02/07 03:59:57;;;;;;;15.45;3.78;;;;;;;13.32;41.83;102039.28;5013890;28;20403;-72
2022/02/07 04:02:22;;;;;;;16.92;4.65;;;;;;;13.27;41.96;102039.34;5014212;28;20092;-72
2022/02/07 04:04:56;;;;;;;12.48;3.88;;;;;;;13.20;41.98;102039.72;5013893;28;20558;-72
2022/02/07 04:07:21;;;;;;;16.80;4.22;;;;;;;13.24;41.92;102031.72;5013938;28;20033;-72
2022/02/07 04:09:51;;;;;;;10.70;3.45;;;;;;;13.26;41.81;102038.53;5013793;28;20447;-72
2022/02/07 04:12:22;;;;;;;17.17;3.70;;;;;;;13.26;41.97;102043.22;5013629;28;20472;-75
2022/02/07 04:14:47;;;;;;;15.15;4.88;;;;;;;13.26;41.61;102046.78;5013576;28;20022;-73
2022/02/07 04:17:19;;;;;;;16.25;4.15;;;;;;;13.28;41.93;102052.75;5013581;28;20088;-72
2022/02/07 04:19:45;;;;;;;20.05;3.97;;;;;;;13.28;42.04;102039.03;5014102;28;20026;-72
2022/02/07 04:22:11;;;;;;;17.55;4.65;;;;;;;13.28;41.87;102055.50;5013723;28;20030;-72
2022/02/07 04:24:37;;;;;;;15.55;3.90;;;;;;;13.29;41.93;102051.66;5031941;28;20075;-72
2022/02/07 04:27:03;;;;;;;20.13;3.42;;;;;;;13.32;41.92;102053.81;5032718;28;20049;-72
2022/02/07 04:29:28;;;;;;;15.30;3.47;;;;;;;13.33;41.82;102052.69;5033149;28;20036;-72
2022/02/07 04:31:54;;;;;;;19.95;4.05;;;;;;;13.32;41.81;102045.56;5032604;28;20041;-72
2022/02/07 04:34:19;;;;;;;19.13;4.45;;;;;;;13.32;41.87;102042.84;5032940;28;20061;-72
2022/02/07 04:36:49;;;;;;;10.15;3.13;;;;;;;13.31;41.86;102043.94;5032742;28;20397;-72
2022/02/07 04:39:15;;;;;;;15.73;4.30;;;;;;;13.32;41.86;102044.75;5033090;28;20029;-72
2022/02/07 04:41:41;;;;;;;13.85;3.70;;;;;;;13.35;41.85;102037.84;5032653;28;20045;-72
2022/02/07 04:44:11;;;;;;;12.55;3.35;;;;;;;13.34;41.87;102042.53;5032894;28;20036;-72
2022/02/07 04:46:58;;;;;;;10.32;3.25;;;;;;;13.36;41.69;102044.97;5032389;28;20032;-72
2022/02/07 04:59:36;;;;;;;14.07;3.38;;;;;;;13.68;41.62;102031.25;5032750;28;20056;-72
2022/02/07 05:02:54;;;;;;;11.95;3.55;;;;;;;13.67;41.59;102040.56;5032444;28;20391;-72
2022/02/07 05:05:05;;;;;;;11.98;3.80;;;;;;;13.79;41.62;102051.91;5025965;28;20489;-73
2022/02/07 05:13:44;;;;;;;15.95;5.10;;;;;;;13.93;41.52;102054.66;5032068;28;20474;-72
2022/02/07 05:16:03;;;;;;;14.05;3.92;;;;;;;14.11;41.36;102058.44;5032502;28;20037;-72
2022/02/07 05:18:30;;;;;;;11.88;4.43;;;;;;;14.16;41.56;102056.41;5032238;28;20029;-74
2022/02/07 05:20:57;;;;;;;14.77;3.55;;;;;;;14.21;41.47;102066.50;5030619;28;20102;-72
2022/02/07 05:23:23;;;;;;;10.15;4.22;;;;;;;14.26;41.63;102065.56;5031954;28;20032;-72
2022/02/07 05:25:49;;;;;;;12.45;4.25;;;;;;;14.34;41.53;102070.34;5031591;28;20048;-71
2022/02/07 05:28:14;;;;;;;13.10;4.30;;;;;;;14.32;41.50;102075.34;5030674;28;20053;-72
2022/02/07 05:30:40;;;;;;;16.17;4.45;;;;;;;14.36;41.55;102081.88;5030204;28;20041;-72
2022/02/07 05:33:05;;;;;;;12.82;3.25;;;;;;;14.41;41.58;102077.06;5031759;28;20032;-72
2022/02/07 05:35:31;;;;;;;14.35;3.72;;;;;;;14.35;41.89;102083.78;5032133;28;20471;-96
2022/02/07 05:37:57;;;;;;;20.02;4.32;;;;;;;14.46;41.75;102084.44;5031810;28;20029;-87
2022/02/07 05:40:35;;;;;;;10.43;3.72;;;;;;;14.56;41.72;102094.41;5030629;28;20029;-84
2022/02/07 05:43:01;;;;;;;11.80;4.97;;;;;;;14.58;41.64;102098.47;5031941;28;20021;-71
2022/02/07 05:45:27;;;;;;;14.15;4.07;;;;;;;14.63;41.73;102094.81;5031661;28;20029;-72
2022/02/07 05:47:53;;;;;;;28.08;4.88;;;;;;;14.63;41.66;102086.56;5031844;28;20022;-72
2022/02/07 05:50:19;;;;;;;16.50;3.78;;;;;;;14.70;41.75;102096.03;5030532;28;20092;-72
2022/02/07 05:52:45;;;;;;;31.45;5.68;;;;;;;14.69;41.75;102088.91;5031630;28;20033;-73
2022/02/07 05:55:10;;;;;;;14.00;4.10;;;;;;;14.71;41.84;102083.09;5031420;28;20021;-72
2022/02/07 05:57:36;;;;;;;20.70;4.68;;;;;;;14.80;41.87;102083.97;5030549;28;20036;-72
2022/02/07 06:00:05;;;;;;;22.83;5.65;;;;;;;14.76;41.92;102082.16;5030450;28;20538;-72
2022/02/07 06:02:31;;;;;;;17.77;4.63;;;;;;;14.79;41.91;102082.34;5030362;28;20041;-72
2022/02/07 06:04:56;;;;;;;17.65;4.13;;;;;;;14.86;41.89;102066.22;5033037;28;20041;-84
2022/02/07 06:07:22;;;;;;;17.55;4.38;;;;;;;14.88;41.87;102058.47;5035767;28;20167;-72
2022/02/07 06:09:48;;;;;;;17.83;4.55;;;;;;;14.98;41.89;102058.25;5035384;28;20053;-84
2022/02/07 06:12:13;;;;;;;16.13;5.53;;;;;;;15.03;41.79;102059.25;5035296;28;20506;-72
2022/02/07 06:14:39;;;;;;;13.82;3.40;;;;;;;15.08;41.62;102056.38;5035453;28;20021;-72
2022/02/07 06:17:05;;;;;;;23.45;5.15;;;;;;;15.00;42.27;102060.69;5035427;28;20029;-73
2022/02/07 06:19:30;;;;;;;15.95;5.20;;;;;;;15.10;42.12;102067.91;5035380;28;20030;-72
2022/02/07 06:21:56;;;;;;;27.27;5.20;;;;;;;15.12;42.14;102062.91;5035218;28;20114;-72
2022/02/07 06:24:22;;;;;;;14.98;4.35;;;;;;;15.03;42.65;102071.06;5035576;28;20029;-71
2022/02/07 06:26:48;;;;;;;19.00;5.60;;;;;;;15.14;42.42;102066.97;5035155;28;20080;-72
2022/02/07 06:29:14;;;;;;;22.25;5.65;;;;;;;15.24;42.32;102065.91;5035416;28;20053;-73
2022/02/07 06:31:39;;;;;;;26.10;7.18;;;;;;;15.28;42.48;102061.41;5035083;28;20087;-72
2022/02/07 06:34:05;;;;;;;17.45;3.85;;;;;;;15.32;42.44;102056.09;5035233;28;20431;-72
2022/02/07 06:36:30;;;;;;;20.77;4.25;;;;;;;15.31;42.39;102052.53;5035033;28;20383;-72
2022/02/07 06:38:57;;;;;;;20.73;4.32;;;;;;;15.31;42.47;102054.47;5034940;28;20029;-72
2022/02/07 06:41:23;;;;;;;26.30;4.97;;;;;;;15.23;42.73;102054.09;5033781;28;20065;-72
2022/02/07 06:43:48;;;;;;;17.65;5.38;;;;;;;15.24;42.89;102043.88;5035387;28;20441;-72
2022/02/07 06:46:14;;;;;;;23.17;4.95;;;;;;;15.35;42.76;102060.97;5035161;28;20074;-71
2022/02/07 06:48:40;;;;;;;17.17;3.83;;;;;;;15.40;42.75;102061.66;5033435;28;20480;-71
2022/02/07 06:51:07;;;;;;;15.43;4.07;;;;;;;15.37;43.00;102048.50;5034641;28;20034;-71
2022/02/07 06:53:32;;;;;;;23.52;5.25;;;;;;;15.46;42.76;102054.88;5035038;28;20045;-71
2022/02/07 06:55:58;;;;;;;18.13;3.88;;;;;;;15.45;42.84;102049.69;5034648;28;20427;-71
2022/02/07 06:58:24;;;;;;;23.88;6.22;;;;;;;15.46;42.90;102056.84;5035121;28;20391;-69
2022/02/07 07:00:49;;;;;;;15.10;4.13;;;;;;;15.48;43.03;102049.88;5034471;28;20040;-68
2022/02/07 07:03:18;;;;;;;24.30;4.63;;;;;;;15.46;43.11;102043.88;5033035;28;20080;-69
2022/02/07 07:05:44;;;;;;;23.73;4.30;;;;;;;15.46;43.17;102030.09;5033204;28;20040;-69
2022/02/07 07:08:10;;;;;;;25.02;4.63;;;;;;;15.54;43.14;102034.84;5032977;28;20572;-69
2022/02/07 07:10:36;;;;;;;18.17;4.60;;;;;;;15.60;43.08;102041.03;5034811;28;20036;-86
2022/02/07 07:13:15;;;;;;;15.13;4.00;;;;;;;15.49;43.50;102035.00;5034336;28;20034;-68
2022/02/07 07:15:47;;;;;;;23.58;4.55;;;;;;;15.46;43.74;102035.59;5033406;28;20032;-70
2022/02/07 07:18:13;;;;;;;17.05;4.55;;;;;;;15.55;43.48;102038.41;5031994;28;20032;-70
2022/02/07 07:20:39;;;;;;;19.92;3.85;;;;;;;15.50;44.03;102041.31;5034132;28;20033;-71
2022/02/07 07:23:05;;;;;;;12.80;4.30;;;;;;;15.63;43.75;102034.91;5032932;28;20033;-71
2022/02/07 07:25:31;;;;;;;20.48;4.78;;;;;;;15.68;43.88;102036.75;5034085;28;20160;-71
2022/02/07 07:28:07;;;;;;;20.05;4.45;;;;;;;15.62;44.24;102029.72;5034560;28;20124;-87
2022/02/07 07:30:38;;;;;;;16.42;3.80;;;;;;;15.82;43.74;102016.22;5034310;28;20025;-73
2022/02/07 07:33:08;;;;;;;17.23;4.78;;;;;;;15.78;43.96;102014.41;5034547;28;20399;-70
2022/02/07 07:35:34;;;;;;;17.35;4.30;;;;;;;15.81;43.82;102013.78;5033874;28;20441;-71
2022/02/07 07:38:00;;;;;;;11.13;4.25;;;;;;;15.79;44.11;102018.78;5034223;28;20092;-70
2022/02/07 07:40:26;;;;;;;14.50;4.25;;;;;;;15.90;43.68;102022.09;5033714;28;20030;-71
2022/02/07 07:42:54;;;;;;;17.52;3.80;;;;;;;15.87;44.00;102017.19;5035218;28;20476;-91
2022/02/07 07:45:24;;;;;;;10.95;3.15;;;;;;;15.68;44.68;102014.69;5036242;28;20108;-96
2022/02/07 07:47:51;;;;;;;;;;;;;;;15.67;45.18;102008.38;5040671;28;20040;-73
2022/02/07 08:01:40;;;;;;;9.43;3.58;;;;;;;16.15;44.56;101993.00;5038217;28;20040;-71
2022/02/07 08:04:10;;;;;;;6.95;3.10;;;;;;;16.25;44.70;102000.97;5025346;28;20030;-72
2022/02/07 08:06:45;;;;;;;14.15;4.30;;;;;;;16.14;44.95;102005.97;5032121;28;20419;-72
2022/02/07 08:11:40;;;;;;;9.32;3.17;;;;;;;16.16;45.46;102005.63;5031950;28;20021;-79
2022/02/07 08:14:06;;;;;;;12.25;3.67;;;;;;;16.29;45.46;102004.72;5031813;28;20026;-75
2022/02/07 08:16:32;;;;;;;9.07;4.05;;;;;;;16.35;45.15;101997.91;5028893;28;20037;-71
2022/02/07 08:19:05;;;;;;;6.93;2.72;;;;;;;16.29;45.59;101997.25;5031019;28;20048;-75
2022/02/07 08:21:30;;;;;;;6.88;3.53;;;;;;;16.48;45.21;102004.44;5033365;28;20025;-71
2022/02/07 08:23:56;;;;;;;5.63;3.03;;;;;;;16.50;45.67;102008.50;5032730;28;20075;-70
2022/02/07 08:26:22;;;;;;;10.55;3.67;;;;;;;16.55;45.87;102004.75;5031839;28;20045;-90
2022/02/07 08:28:47;;;;;;;6.80;3.30;;;;;;;16.61;45.76;102011.72;5032460;28;20104;-70
2022/02/07 08:31:13;;;;;;;9.43;3.60;;;;;;;16.57;46.19;102010.78;5031070;28;20430;-70
2022/02/07 08:33:39;;;;;;;6.15;3.28;;;;;;;16.75;45.65;101997.81;5031858;28;20013;-71
2022/02/07 08:36:05;;;;;;;9.45;3.55;;;;;;;16.75;45.56;101997.81;5032471;28;20022;-70
2022/02/07 08:38:32;;;;;;;7.97;3.97;;;;;;;16.84;45.72;101999.44;5031794;28;20025;-71
2022/02/07 08:40:58;;;;;;;8.50;3.75;;;;;;;16.87;45.51;102000.75;5031817;28;20029;-71
2022/02/07 08:43:23;;;;;;;5.20;2.83;;;;;;;16.93;45.63;102002.22;5032301;28;20022;-70
2022/02/07 08:45:49;;;;;;;5.60;2.88;;;;;;;17.03;45.65;101990.03;5033510;28;20057;-70
2022/02/07 08:48:15;;;;;;;7.57;2.70;;;;;;;16.96;46.32;101989.69;5032282;28;20422;-70
2022/02/07 08:50:40;;;;;;;7.40;3.42;;;;;;;16.94;46.60;101989.22;5033342;28;20032;-69
2022/02/07 08:53:07;;;;;;;46.20;32.88;;;;;;;17.14;45.93;101983.00;5033188;28;20527;-86
2022/02/07 08:55:38;;;;;;;17.27;12.98;;;;;;;17.19;45.97;101980.09;5034251;28;20025;-71
2022/02/07 08:58:13;;;;;;;30.17;20.50;;;;;;;17.19;46.08;101983.66;5035694;28;20021;-74
2022/02/07 09:03:40;;;;;;;13.43;9.95;;;;;;;17.44;45.76;101986.69;5046900;28;20025;-93
2022/02/07 09:11:15;;;;;;;8.30;4.05;;;;;;;17.56;46.23;101983.25;5045746;28;20024;-86
2022/02/07 09:13:44;;;;;;;5.53;4.25;;;;;;;17.63;45.97;101984.38;5049345;28;20029;-84
2022/02/07 09:18:40;;;;;;;10.38;6.60;;;;;;;17.70;46.45;101984.69;5028661;28;20017;-71
2022/02/07 09:21:07;;;;;;;8.43;4.30;;;;;;;17.78;46.39;101982.22;5023714;28;20028;-71
2022/02/07 09:23:39;;;;;;;5.72;5.10;;;;;;;17.73;47.10;101978.50;5021998;28;20017;-71
2022/02/07 09:26:05;;;;;;;8.48;5.50;;;;;;;17.93;46.54;101984.44;5022072;28;20388;-71
2022/02/07 09:28:31;;;;;;;9.40;8.55;;;;;;;18.04;46.22;101980.13;5021644;28;20369;-72
2022/02/07 09:30:57;;;;;;;6.47;5.35;;;;;;;18.05;46.69;101978.97;5022990;28;20538;-72
2022/02/07 09:33:23;;;;;;;13.88;5.90;;;;;;;18.17;46.41;101986.56;5023313;28;20053;-71
2022/02/07 09:35:52;;;;;;;7.43;4.28;;;;;;;18.03;47.15;101986.81;5025968;28;20029;-71
2022/02/07 09:38:19;;;;;;;12.32;9.18;;;;;;;18.08;47.08;101983.88;5021742;28;20045;-71
2022/02/07 09:40:53;;;;;;;8.35;3.88;;;;;;;18.33;46.58;101973.78;5022080;28;20472;-71
2022/02/07 09:43:20;;;;;;;5.88;3.88;;;;;;;18.50;46.53;101979.19;5022270;28;20037;-71
2022/02/07 09:45:50;;;;;;;5.78;4.25;;;;;;;18.54;46.70;101969.06;5022047;28;20105;-71
2022/02/07 09:48:17;;;;;;;5.30;3.50;;;;;;;18.56;46.92;101968.72;5024169;28;20423;-71
2022/02/07 09:50:43;;;;;;;7.70;4.90;;;;;;;18.60;46.83;101979.97;5032656;28;20021;-71
2022/02/07 09:53:09;;;;;;;6.75;4.15;;;;;;;18.69;46.96;101984.28;5033137;28;20075;-71
2022/02/07 09:55:35;;;;;;;6.38;3.58;;;;;;;18.72;46.87;101978.06;5032449;28;20025;-71
2022/02/07 09:58:01;;;;;;;9.93;8.65;;;;;;;18.94;46.49;101982.44;5029070;28;20026;-71
2022/02/07 10:00:35;;;;;;;5.55;4.20;;;;;;;19.02;46.79;101984.31;5021121;28;20084;-71
2022/02/07 10:03:19;;;;;;;5.63;4.22;;;;;;;18.97;47.09;101981.78;5024710;28;20032;-71
2022/02/07 10:11:24;;;;;;;4.50;3.15;;;;;;;19.22;47.24;101974.38;5037932;28;20502;-71
2022/02/07 10:19:08;;;;;;;4.38;2.83;;;;;;;19.44;47.20;101981.47;5031174;28;20030;-70
2022/02/07 10:22:07;;;;;;;3.65;2.50;;;;;;;19.53;47.41;101976.63;5032644;28;20025;-70
2022/02/07 10:38:37;;;;;;;6.00;4.43;;;;;;;19.79;47.26;101986.63;5032285;28;20061;-71
2022/02/07 10:43:56;;;;;;;8.85;8.05;;;;;;;20.10;46.63;101986.03;5030703;28;20022;-71
2022/02/07 10:46:20;;;;;;;8.80;8.00;;;;;;;20.08;46.84;101986.38;5032156;28;20033;-71
2022/02/07 10:48:54;;;;;;;10.57;9.68;;;;;;;20.13;46.51;101988.94;5032211;28;20464;-71
2022/02/07 10:51:27;;;;;;;8.82;7.70;;;;;;;20.08;46.84;101991.13;5036943;28;20085;-72
2022/02/07 10:54:03;;;;;;;4.75;3.90;;;;;;;20.29;46.68;101997.38;5036607;28;20033;-71
2022/02/07 10:56:36;;;;;;;7.25;6.47;;;;;;;20.47;46.28;101995.97;5038481;28;20085;-74
2022/02/07 10:59:06;;;;;;;5.47;4.75;;;;;;;20.54;46.12;101989.03;5037688;28;20064;-71
2022/02/07 11:04:37;;;;;;;4.85;3.08;;;;;;;20.20;47.26;101978.06;5033295;28;20033;-72
2022/02/07 11:07:03;;;;;;;5.03;3.40;;;;;;;20.40;46.94;101976.31;5027267;28;20145;-71
2022/02/07 11:09:38;;;;;;;7.38;3.92;;;;;;;20.57;46.56;101978.03;5025638;28;20023;-71
2022/02/07 11:15:29;;;;;;;5.13;3.65;;;;;;;20.47;46.94;101970.97;4996517;28;20038;-71
2022/02/07 11:21:05;;;;;;;4.88;2.47;;;;;;;20.45;46.99;101975.28;5027083;28;20076;-71
2022/02/07 11:23:22;;;;;;;4.22;2.50;;;;;;;20.33;47.21;101970.53;5015321;28;20041;-71
2022/02/07 11:25:55;;;;;;;4.93;2.95;;;;;;;20.50;46.81;101981.41;5024679;28;20030;-72
2022/02/07 11:28:25;;;;;;;4.18;2.53;;;;;;;20.71;46.33;101983.22;5023467;28;20034;-88
2022/02/07 11:31:04;;;;;;;;;;;;;;;20.77;46.26;101985.34;5023503;28;20033;-71
2022/02/07 11:36:27;;;;;;;2.25;1.13;;;;;;;20.04;47.23;101973.56;5023556;28;20037;-71
2022/02/07 11:39:02;;;;;;;3.63;1.27;;;;;;;20.70;45.65;101976.00;5026624;28;20026;-71
2022/02/07 11:41:28;;;;;;;2.47;1.02;;;;;;;20.41;46.74;101963.25;5022388;28;20428;-71
2022/02/07 11:43:54;;;;;;;6.25;1.27;;;;;;;20.66;45.55;101970.38;5024838;28;20057;-71
2022/02/07 11:46:21;;;;;;;2.17;0.60;;;;;;;20.43;46.12;101958.94;5022778;28;20088;-71
2022/02/07 11:48:49;;;;;;;4.55;1.27;;;;;;;20.60;45.44;101957.06;5024294;28;20026;-82
2022/02/07 11:51:21;;;;;;;3.50;0.90;;;;;;;20.84;44.94;101973.66;5032130;28;20033;-72
2022/02/07 11:53:59;;;;;;;4.10;0.88;;;;;;;20.94;44.72;101975.94;5035164;28;20032;-71
2022/02/07 11:56:37;;;;;;;6.40;0.88;;;;;;;20.83;45.11;101977.59;5030510;28;20022;-71
2022/02/07 12:02:15;;;;;;;5.03;1.95;;;;;;;20.74;44.91;101988.03;5004530;28;20041;-71
2022/02/07 12:04:48;;;;;;;6.05;1.83;;;;;;;20.37;45.71;101977.00;5029629;28;20017;-71
2022/02/07 12:07:23;;;;;;;2.83;0.95;;;;;;;20.63;44.97;101984.97;5042230;28;20683;-85
2022/02/07 12:12:41;;;;;;;4.93;1.55;;;;;;;20.95;44.81;101982.31;5039775;28;20038;-71
2022/02/07 12:15:17;;;;;;;1.85;0.82;;;;;;;20.71;45.49;101985.97;5025358;28;20369;-72
2022/02/07 12:17:50;;;;;;;2.55;1.05;;;;;;;21.05;44.66;101977.03;5025517;28;20100;-76
2022/02/07 12:20:19;;;;;;;2.42;1.10;;;;;;;21.22;44.04;101983.44;5026119;28;20032;-71
2022/02/07 12:23:06;;;;;;;2.95;1.45;;;;;;;20.88;44.78;101991.25;5023065;28;20014;-71
2022/02/07 12:25:49;;;;;;;2.60;1.25;;;;;;;21.16;44.03;101987.63;5023558;28;20029;-71
2022/02/07 12:28:44;;;;;;;3.45;1.63;;;;;;;21.35;43.48;101987.00;5023944;28;20065;-71
2022/02/07 12:31:16;;;;;;;4.45;1.30;;;;;;;20.94;44.26;102012.06;5021843;28;20137;-71
2022/02/07 12:33:53;;;;;;;3.45;0.98;;;;;;;20.66;44.95;101997.31;5021359;28;20034;-71
2022/02/07 12:36:19;;;;;;;2.72;0.85;;;;;;;20.72;44.62;101988.41;5023475;28;20398;-71
2022/02/07 12:38:46;;;;;;;3.08;1.25;;;;;;;20.48;45.45;101999.56;5023347;28;20072;-77
2022/02/07 12:41:15;;;;;;;3.55;0.90;;;;;;;20.48;45.41;101999.56;5025054;28;20029;-71
2022/02/07 12:43:46;;;;;;;3.70;1.02;;;;;;;20.72;45.01;101999.50;5044787;28;20128;-70
2022/02/07 12:46:14;;;;;;;5.35;1.40;;;;;;;20.57;44.99;101993.88;5023424;28;20029;-70
2022/02/07 12:48:50;;;;;;;4.70;1.65;;;;;;;20.93;44.50;101982.66;5021899;28;20436;-71
2022/02/07 12:51:19;;;;;;;7.18;1.50;;;;;;;20.97;44.23;101989.13;5022738;28;20026;-71
2022/02/07 12:53:46;;;;;;;9.63;1.90;;;;;;;20.74;44.35;101979.72;5022160;28;20026;-71
2022/02/07 12:56:12;;;;;;;10.32;1.95;;;;;;;20.77;44.30;101981.78;5023128;28;20480;-71
2022/02/07 12:58:43;;;;;;;8.55;1.80;;;;;;;20.75;43.96;101979.34;5021111;28;20032;-72
2022/02/07 13:01:34;;;;;;;9.65;2.63;;;;;;;21.00;43.31;101966.16;5021935;28;20048;-71
2022/02/07 13:04:11;;;;;;;10.52;1.83;;;;;;;20.66;43.39;101956.47;5023123;28;20022;-72
2022/02/07 13:06:40;;;;;;;6.10;2.28;;;;;;;21.20;42.48;101953.22;5025486;28;20021;-72
2022/02/07 13:09:28;;;;;;;7.78;2.45;;;;;;;20.80;42.88;101936.66;5020667;28;20026;-71
2022/02/07 13:12:14;;;;;;;8.48;2.60;;;;;;;21.11;42.43;101938.69;5023112;28;20357;-74
2022/02/07 13:14:48;;;;;;;10.20;3.97;;;;;;;21.12;42.02;101933.94;5019693;28;20017;-72
2022/02/07 13:17:15;;;;;;;10.43;5.68;;;;;;;21.42;41.32;101926.81;5023010;28;20032;-72
2022/02/07 13:19:47;;;;;;;29.48;26.67;;;;;;;21.45;40.83;101928.88;5021278;28;20024;-73
2022/02/07 13:22:15;;;;;;;11.73;3.80;;;;;;;21.44;41.34;101932.03;5025136;28;20033;-70
2022/02/07 13:24:41;;;;;;;12.20;5.28;;;;;;;21.35;41.01;101921.09;5019377;28;20028;-70
2022/02/07 13:27:10;;;;;;;11.60;2.92;;;;;;;21.32;41.27;101910.69;5015578;28;20045;-92
2022/02/07 13:29:44;;;;;;;9.38;4.82;;;;;;;20.61;41.38;101917.84;5012612;28;20481;-70
2022/02/07 13:32:15;;;;;;;7.63;3.88;;;;;;;21.32;39.68;101927.38;5013004;28;20128;-72
2022/02/07 13:34:44;;;;;;;11.13;3.58;;;;;;;20.65;40.29;101920.75;5013015;28;20057;-87
2022/02/07 13:37:15;;;;;;;9.95;3.00;;;;;;;20.93;40.09;101927.09;5031469;28;20116;-78
2022/02/07 13:40:00;;;;;;;9.65;5.07;;;;;;;21.00;39.76;101921.72;5032408;28;20033;-70
2022/02/07 13:42:31;;;;;;;9.52;2.38;;;;;;;21.12;39.62;101917.25;5031277;28;20116;-69
2022/02/07 13:45:11;;;;;;;10.63;3.00;;;;;;;20.92;40.06;101908.78;5029913;28;20018;-69
2022/02/07 13:47:44;;;;;;;13.38;4.60;;;;;;;20.95;39.92;101910.06;5030027;28;20025;-71
2022/02/07 13:50:15;;;;;;;6.20;2.15;;;;;;;20.98;39.61;101921.25;5030443;28;20438;-69
2022/02/07 13:52:43;;;;;;;8.07;2.80;;;;;;;21.20;39.37;101919.06;5030865;28;20037;-70
2022/02/07 13:55:21;;;;;;;12.57;3.88;;;;;;;20.95;39.63;101910.88;5032381;28;20361;-70
2022/02/07 13:58:05;;;;;;;8.75;2.70;;;;;;;20.63;39.86;101914.72;5032173;28;20057;-70
2022/02/07 14:00:37;;;;;;;9.75;2.40;;;;;;;21.05;39.26;101910.34;5032148;28;20034;-70
2022/02/07 14:03:04;;;;;;;7.20;2.58;;;;;;;20.71;39.78;101866.56;5033192;28;20079;-69